METAR UND TAF INFORMATION

METAR FOR GMFF
ADDS - METARS form results

(0206 UTC 26 June 2022)
Data provider http://aviationweather.gov/metar/data/
 
METAR text: GMFF 260200Z 29004KT 9999 FEW030 15/12 Q1016 NOSIG
Conditions at: GMFF (FES-SAIS , MA) observed 0200 UTC 26 June 2022
Temperature: 15.0°C (59°F)
Dewpoint: 12.0°C (54°F) [RH = 82%]
Pressure (altimeter): 30.00 inches Hg (1016.0 mb)
Winds: from the WNW (290 degrees) at 5 MPH (4 knots; 2.1 m/s)
Visibility: 6 or more miles (10+ km)
Ceiling: at least 12,000 feet AGL
Clouds: few clouds at 3000 feet AGL
Weather: no significant weather observed at this time

METAR text: GMFF 260130Z 26005KT 240V300 9999 FEW030 16/12 Q1016 NOSIG
Conditions at: GMFF (FES-SAIS , MA) observed 0130 UTC 26 June 2022
Temperature: 16.0°C (61°F)
Dewpoint: 12.0°C (54°F) [RH = 77%]
Pressure (altimeter): 30.00 inches Hg (1016.0 mb)
Winds: from the W (260 degrees) at 6 MPH (5 knots; 2.6 m/s)
Visibility: 6 or more miles (10+ km)
Ceiling: at least 12,000 feet AGL
Clouds: few clouds at 3000 feet AGL
Weather: no significant weather observed at this time

Forecast for: GMFF (FES-SAIS , MA)
Text: TAF GMFF 252300Z 2600/2706 30006KT CAVOK
Forecast period: 0000 UTC 26 June 2022 to 0600 UTC 27 June 2022
Forecast type: FROM: standard forecast or significant change
Winds: from the WNW (300 degrees) at 7 MPH (6 knots; 3.1 m/s)
Visibility: 6 or more miles (10+ km)
Ceiling: unknown
Clouds: missing
Weather: NSW  (no significant weather)
Text: BECMG 2600/2602 SCT026
Forecast period: 0000 to 1000 UTC 26 June 2022
Forecast type: BECOMING: Conditions expected to become as follows by 0200 UTC 26 June 2022
Winds: from the WNW (300 degrees) at 7 MPH (6 knots; 3.1 m/s)
Visibility: 6 or more miles (10+ km)
Ceiling: at least 12,000 feet AGL
Clouds: scattered clouds at 2600 feet AGL
Weather: NSW  (no significant weather)
Text: TEMPO 2603/2609 2000 BR BKN010
Forecast period: 0300 to 0900 UTC 26 June 2022
Forecast type: TEMPORARY: The following changes expected for less than half the time period
Visibility: 1.24 miles (2.00 km)
Ceiling: 1000 feet AGL
Clouds: broken clouds at 1000 feet AGL
Weather: BR  (mist)
Text: BECMG 2610/2614 32010KT
Forecast period: 1000 UTC 26 June 2022 to 0600 UTC 27 June 2022
Forecast type: BECOMING: Conditions expected to become as follows by 1400 UTC 26 June 2022
Winds: from the NW (320 degrees) at 12 MPH (10 knots; 5.1 m/s)
Visibility: 6 or more miles (10+ km)
Ceiling: at least 12,000 feet AGL
Clouds: scattered clouds at 2600 feet AGL
Weather: NSW  (no significant weather)

 FLUGHAFENKARTE

 RUNWAY INFORMATION
Runway 09 Runway length 10499 ft Runway width 148 ft
Runway elevation 1854 ft Runway displaced threshold 0 ft Runway heading 90
Runway 27 Runway length 10499 ft Runway width 148 ft
Runway elevation 1890 ft Runway displaced threshold 820 ft Runway heading 270

 AIRPORT FREQUENCIES
Type TWR Name TWR Frequency 118.6 MHZ

 AIRPORT NEAR NAVIGATION AIDS
Type VOR-DME Name Saiss Frequency 115700 KHZ